Time;durP1;ratioP1;P1;durP2;ratioP2;P2;SDS_P1;SDS_P2;PMS_P1;PMS_P2;Temp;Humidity;BMP_temperature;BMP_pressure;BME280_temperature;BME280_humidity;BME280_pressure;Samples;Min_cycle;Max_cycle;Signal;HPM_P1;HPM_P2
2023/12/30 00:01:22;;;;;;;25.93;23.90;;;;;;;;;;4953298;28;20437;-44
2023/12/30 00:03:48;;;;;;;19.15;17.58;;;;;;;;;;4953269;28;20903;-45
2023/12/30 00:06:19;;;;;;;26.45;24.25;;;;;;;;;;4956649;28;20708;-45
2023/12/30 00:08:45;;;;;;;36.78;33.67;;;;;;;;;;4957136;28;20216;-46
2023/12/30 00:11:11;;;;;;;22.97;21.07;;;;;;;;;;4955014;28;20218;-45
2023/12/30 00:13:38;;;;;;;37.45;34.38;;;;;;;;;;4958772;28;20457;-45
2023/12/30 00:16:04;;;;;;;37.78;34.40;;;;;;;;;;4953370;28;20210;-45
2023/12/30 00:18:30;;;;;;;20.95;19.25;;;;;;;;;;4953334;28;20182;-46
2023/12/30 00:20:56;;;;;;;38.13;34.93;;;;;;;;;;4953026;28;20179;-45
2023/12/30 00:23:22;;;;;;;21.90;20.20;;;;;;;;;;4953025;28;20913;-45
2023/12/30 00:25:48;;;;;;;28.93;26.60;;;;;;;;;;4953226;28;20499;-44
2023/12/30 00:28:14;;;;;;;39.37;35.43;;;;;;;;;;4953924;28;20424;-45
2023/12/30 00:30:40;;;;;;;88.73;39.87;;;;;;;;;;4956739;28;20504;-45
2023/12/30 00:33:06;;;;;;;84.60;48.60;;;;;;;;;;4956573;28;20472;-45
2023/12/30 00:35:32;;;;;;;80.25;39.55;;;;;;;;;;4956808;28;20839;-44
2023/12/30 00:37:58;;;;;;;79.60;48.43;;;;;;;;;;4956571;28;20214;-45
2023/12/30 00:40:24;;;;;;;89.57;42.65;;;;;;;;;;4956846;28;20420;-45
2023/12/30 00:42:50;;;;;;;72.50;47.07;;;;;;;;;;4956483;28;20198;-45
2023/12/30 00:45:16;;;;;;;82.50;42.17;;;;;;;;;;4956572;28;20496;-46
2023/12/30 00:47:41;;;;;;;66.13;41.73;;;;;;;;;;4956609;28;20421;-45
2023/12/30 00:50:08;;;;;;;86.63;41.83;;;;;;;;;;4956497;28;20456;-45
2023/12/30 00:52:34;;;;;;;87.35;49.13;;;;;;;;;;4955996;28;20567;-45
2023/12/30 00:54:59;;;;;;;79.20;42.10;;;;;;;;;;4956468;28;20249;-45
2023/12/30 00:57:25;;;;;;;74.63;40.00;;;;;;;;;;4956384;28;20409;-45
2023/12/30 00:59:51;;;;;;;77.67;38.90;;;;;;;;;;4956344;28;20410;-45
2023/12/30 01:02:17;;;;;;;61.27;39.00;;;;;;;;;;4955873;28;21115;-44
2023/12/30 01:04:43;;;;;;;85.27;40.40;;;;;;;;;;4956201;28;20559;-46
2023/12/30 01:07:09;;;;;;;82.63;40.37;;;;;;;;;;4955963;28;20419;-45
2023/12/30 01:09:35;;;;;;;86.33;43.23;;;;;;;;;;4956459;28;20903;-45
2023/12/30 01:12:01;;;;;;;110.90;43.90;;;;;;;;;;4955668;28;21010;-44
2023/12/30 01:14:27;;;;;;;114.22;47.53;;;;;;;;;;4957675;28;20921;-45
2023/12/30 01:16:53;;;;;;;102.93;43.10;;;;;;;;;;4959213;28;20229;-45
2023/12/30 01:19:19;;;;;;;94.87;40.73;;;;;;;;;;4960689;28;20509;-45
2023/12/30 01:21:45;;;;;;;114.90;43.30;;;;;;;;;;4955699;28;20489;-45
2023/12/30 01:24:11;;;;;;;125.32;50.60;;;;;;;;;;4955810;28;20435;-45
2023/12/30 01:26:40;;;;;;;108.60;42.80;;;;;;;;;;4955811;28;20175;-45
2023/12/30 01:29:06;;;;;;;114.20;44.05;;;;;;;;;;4957346;28;20418;-45
2023/12/30 01:31:34;;;;;;;96.83;40.93;;;;;;;;;;4958621;28;20269;-45
2023/12/30 01:34:00;;;;;;;106.97;41.67;;;;;;;;;;4960361;28;20462;-44
2023/12/30 01:36:25;;;;;;;110.70;43.07;;;;;;;;;;4961939;28;20714;-45
2023/12/30 01:38:52;;;;;;;103.67;43.43;;;;;;;;;;4963053;28;20957;-45
2023/12/30 01:41:19;;;;;;;82.38;39.88;;;;;;;;;;4954367;28;20437;-45
2023/12/30 01:43:45;;;;;;;89.68;47.20;;;;;;;;;;4955480;28;20198;-44
2023/12/30 01:46:12;;;;;;;108.15;52.78;;;;;;;;;;4954747;28;20233;-46
2023/12/30 01:48:38;;;;;;;102.05;42.20;;;;;;;;;;4952529;29;20179;-45
2023/12/30 01:51:07;;;;;;;98.97;42.58;;;;;;;;;;4961947;28;20178;-45
2023/12/30 01:53:33;;;;;;;103.78;41.85;;;;;;;;;;4955143;28;20285;-45
2023/12/30 01:55:59;;;;;;;98.25;49.35;;;;;;;;;;4955232;28;20203;-45
2023/12/30 01:58:26;;;;;;;100.75;41.88;;;;;;;;;;4963941;28;20178;-45
2023/12/30 02:00:52;;;;;;;92.72;45.40;;;;;;;;;;4959684;28;20218;-45
2023/12/30 02:03:19;;;;;;;38.92;33.65;;;;;;;;;;4956526;28;20194;-45
2023/12/30 02:05:47;;;;;;;55.38;37.53;;;;;;;;;;4959172;28;20305;-45
2023/12/30 02:08:13;;;;;;;56.30;38.67;;;;;;;;;;4954093;28;20186;-45
2023/12/30 02:10:40;;;;;;;45.33;34.88;;;;;;;;;;4954771;28;20212;-45
2023/12/30 02:13:06;;;;;;;62.95;37.47;;;;;;;;;;4954862;28;20213;-45
2023/12/30 02:15:32;;;;;;;69.40;44.70;;;;;;;;;;4954928;28;20171;-45
2023/12/30 02:17:58;;;;;;;73.23;39.00;;;;;;;;;;4954977;28;20193;-45
2023/12/30 02:20:24;;;;;;;51.92;37.80;;;;;;;;;;4955112;28;20406;-45
2023/12/30 02:22:50;;;;;;;42.97;35.13;;;;;;;;;;4954729;28;20193;-46
2023/12/30 02:25:16;;;;;;;81.73;41.13;;;;;;;;;;4954771;28;20537;-45
2023/12/30 02:27:43;;;;;;;69.70;37.30;;;;;;;;;;4954651;28;20405;-45
2023/12/30 02:30:10;;;;;;;72.57;40.58;;;;;;;;;;4954643;28;20174;-46
2023/12/30 02:32:35;;;;;;;79.93;39.33;;;;;;;;;;4954279;28;20682;-45
2023/12/30 02:35:02;;;;;;;70.27;37.83;;;;;;;;;;4954597;28;20182;-44
2023/12/30 02:37:28;;;;;;;59.92;37.28;;;;;;;;;;4954510;28;20421;-45
2023/12/30 02:39:54;;;;;;;48.92;35.58;;;;;;;;;;4954416;28;20666;-45
2023/12/30 02:42:20;;;;;;;45.40;35.03;;;;;;;;;;4954606;28;20576;-45
2023/12/30 02:44:46;;;;;;;65.60;36.92;;;;;;;;;;4958869;28;20646;-46
2023/12/30 02:47:12;;;;;;;48.07;35.00;;;;;;;;;;4961009;28;20464;-44
2023/12/30 02:49:44;;;;;;;77.70;45.27;;;;;;;;;;4954393;28;20465;-45
2023/12/30 02:52:10;;;;;;;46.75;34.78;;;;;;;;;;4953402;28;20445;-45
2023/12/30 02:54:36;;;;;;;38.78;31.55;;;;;;;;;;4954204;28;20170;-45
2023/12/30 02:57:03;;;;;;;65.53;36.77;;;;;;;;;;4954180;28;20174;-45
2023/12/30 02:59:30;;;;;;;47.90;34.10;;;;;;;;;;4954138;28;20406;-46
2023/12/30 03:01:56;;;;;;;58.08;35.25;;;;;;;;;;4954098;28;20192;-45
2023/12/30 03:04:22;;;;;;;29.02;26.23;;;;;;;;;;4953720;28;20268;-45
2023/12/30 03:06:48;;;;;;;54.80;34.65;;;;;;;;;;4956140;28;20162;-45
2023/12/30 03:09:14;;;;;;;31.73;28.60;;;;;;;;;;4957744;28;20721;-44
2023/12/30 03:11:42;;;;;;;42.58;31.52;;;;;;;;;;4953778;28;20417;-45
2023/12/30 03:14:08;;;;;;;46.65;35.05;;;;;;;;;;4953755;28;20582;-45
2023/12/30 03:16:34;;;;;;;55.27;37.43;;;;;;;;;;4953872;28;20184;-45
2023/12/30 03:19:00;;;;;;;55.72;39.65;;;;;;;;;;4953972;28;20512;-45
2023/12/30 03:21:26;;;;;;;63.67;38.97;;;;;;;;;;4953859;28;20670;-45
2023/12/30 03:23:52;;;;;;;63.93;39.00;;;;;;;;;;4953746;28;20917;-45
2023/12/30 03:26:18;;;;;;;38.13;30.60;;;;;;;;;;4953614;28;20476;-45
2023/12/30 03:28:44;;;;;;;32.92;29.13;;;;;;;;;;4953967;28;20420;-45
2023/12/30 03:31:20;;;;;;;24.90;22.90;;;;;;;;;;4954135;28;20205;-45
2023/12/30 03:33:46;;;;;;;25.90;23.45;;;;;;;;;;4955381;28;20527;-45
2023/12/30 03:36:12;;;;;;;27.60;25.07;;;;;;;;;;4957044;28;20684;-45
2023/12/30 03:38:38;;;;;;;27.10;24.70;;;;;;;;;;4956327;28;20413;-44
2023/12/30 03:41:04;;;;;;;28.93;26.23;;;;;;;;;;4955578;28;20402;-44
2023/12/30 03:43:30;;;;;;;34.47;30.83;;;;;;;;;;4953597;28;20434;-45
2023/12/30 03:45:55;;;;;;;26.07;23.83;;;;;;;;;;4953570;28;20224;-45
2023/12/30 03:48:22;;;;;;;27.07;24.67;;;;;;;;;;4959238;28;20420;-45
2023/12/30 03:50:48;;;;;;;27.27;24.73;;;;;;;;;;4970838;28;20889;-45
2023/12/30 03:53:14;;;;;;;27.23;24.63;;;;;;;;;;4953494;28;20208;-45
2023/12/30 03:55:40;;;;;;;27.08;24.48;;;;;;;;;;4953893;28;20417;-45
2023/12/30 03:58:06;;;;;;;25.83;23.43;;;;;;;;;;4966771;28;20260;-45
2023/12/30 04:00:32;;;;;;;35.13;31.73;;;;;;;;;;4963229;28;20431;-45
2023/12/30 04:02:58;;;;;;;21.80;19.80;;;;;;;;;;4958879;28;20433;-46
2023/12/30 04:05:24;;;;;;;24.50;22.23;;;;;;;;;;4975337;28;20447;-46
2023/12/30 04:07:50;;;;;;;36.38;32.25;;;;;;;;;;4957380;28;20437;-45
2023/12/30 04:10:17;;;;;;;26.05;23.88;;;;;;;;;;4956833;28;20209;-46
2023/12/30 04:12:43;;;;;;;38.15;33.35;;;;;;;;;;4944206;28;20674;-45
2023/12/30 04:15:09;;;;;;;25.38;23.00;;;;;;;;;;4946685;29;20272;-45
2023/12/30 04:17:35;;;;;;;38.83;34.72;;;;;;;;;;4952500;28;20194;-46
2023/12/30 04:20:02;;;;;;;38.22;34.13;;;;;;;;;;4938808;29;20186;-45
2023/12/30 04:22:28;;;;;;;36.33;32.47;;;;;;;;;;4956847;28;20197;-45
2023/12/30 04:24:54;;;;;;;37.88;33.72;;;;;;;;;;4940749;28;20223;-44
2023/12/30 04:27:20;;;;;;;36.78;33.10;;;;;;;;;;4950139;29;20250;-45
2023/12/30 04:29:46;;;;;;;30.87;28.07;;;;;;;;;;4948515;28;20262;-45
2023/12/30 04:35:15;;;;;;;34.05;30.98;;;;;;;;;;4951478;29;20378;-44
2023/12/30 04:37:41;;;;;;;37.83;33.97;;;;;;;;;;4938891;29;20179;-45
2023/12/30 04:40:08;;;;;;;45.40;35.00;;;;;;;;;;4956879;28;20448;-45
2023/12/30 04:42:33;;;;;;;41.00;36.67;;;;;;;;;;4939715;28;20462;-45
2023/12/30 04:44:59;;;;;;;51.97;34.07;;;;;;;;;;4950241;29;20606;-45
2023/12/30 04:47:25;;;;;;;36.07;29.90;;;;;;;;;;4947849;28;20415;-45
2023/12/30 04:49:51;;;;;;;54.13;34.60;;;;;;;;;;4942253;29;20414;-45
2023/12/30 04:52:17;;;;;;;37.20;33.20;;;;;;;;;;4955043;28;20556;-45
2023/12/30 04:54:43;;;;;;;30.07;26.90;;;;;;;;;;4937436;29;20410;-45
2023/12/30 04:57:09;;;;;;;54.08;34.72;;;;;;;;;;4953402;29;20410;-46
2023/12/30 04:59:35;;;;;;;43.67;33.33;;;;;;;;;;4944381;28;20184;-45
2023/12/30 05:02:01;;;;;;;30.65;27.35;;;;;;;;;;4945091;28;20430;-45
2023/12/30 05:04:27;;;;;;;50.60;34.90;;;;;;;;;;4951923;28;20196;-45
2023/12/30 05:06:53;;;;;;;39.10;31.73;;;;;;;;;;4937318;29;20170;-45
2023/12/30 05:09:20;;;;;;;29.10;25.20;;;;;;;;;;4956416;28;20408;-44
2023/12/30 05:11:48;;;;;;;45.08;30.65;;;;;;;;;;4940098;28;20444;-45
2023/12/30 05:14:15;;;;;;;58.97;32.67;;;;;;;;;;4948678;28;20231;-45
2023/12/30 05:16:43;;;;;;;90.03;43.92;;;;;;;;;;4947784;28;20178;-45
2023/12/30 05:19:09;;;;;;;60.25;34.65;;;;;;;;;;4941319;29;20174;-45
2023/12/30 05:21:35;;;;;;;90.43;37.47;;;;;;;;;;4955057;28;20297;-45
2023/12/30 05:24:01;;;;;;;48.80;32.20;;;;;;;;;;4936925;29;20446;-45
2023/12/30 05:26:27;;;;;;;69.03;35.08;;;;;;;;;;4952731;28;20744;-45
2023/12/30 05:28:55;;;;;;;47.10;31.40;;;;;;;;;;4943958;28;20187;-45
2023/12/30 05:31:21;;;;;;;63.45;38.20;;;;;;;;;;4944699;29;20418;-45
2023/12/30 05:33:47;;;;;;;50.10;30.87;;;;;;;;;;4951202;28;20206;-45
2023/12/30 05:36:13;;;;;;;43.43;27.97;;;;;;;;;;4936802;29;20416;-45
2023/12/30 05:38:39;;;;;;;55.20;33.00;;;;;;;;;;4955889;28;20463;-45
2023/12/30 05:41:05;;;;;;;28.30;25.47;;;;;;;;;;4939855;28;20414;-45
2023/12/30 05:43:31;;;;;;;41.58;30.83;;;;;;;;;;4948729;29;20430;-46
2023/12/30 05:45:57;;;;;;;73.80;40.33;;;;;;;;;;4947934;28;20227;-45
2023/12/30 05:48:23;;;;;;;11.30;10.40;;;;;;;;;;4940025;29;20417;-45
2023/12/30 05:50:48;;;;;;;143.50;43.33;;;;;;;;;;4955212;28;20442;-46
2023/12/30 05:53:14;;;;;;;136.03;44.33;;;;;;;;;;4955365;28;20468;-45
2023/12/30 05:55:40;;;;;;;132.70;42.63;;;;;;;;;;4940356;28;20420;-45
2023/12/30 05:58:06;;;;;;;135.80;42.20;;;;;;;;;;4938201;29;20183;-45
2023/12/30 06:00:32;;;;;;;137.60;45.72;;;;;;;;;;4942990;29;20465;-45
2023/12/30 06:02:58;;;;;;;139.57;45.25;;;;;;;;;;4951869;28;20205;-45
2023/12/30 06:05:25;;;;;;;135.23;42.40;;;;;;;;;;4936064;29;20654;-45
2023/12/30 06:07:51;;;;;;;132.40;41.95;;;;;;;;;;4954505;29;20838;-45
2023/12/30 06:10:18;;;;;;;127.05;42.28;;;;;;;;;;4940722;28;20193;-45
2023/12/30 06:12:43;;;;;;;108.80;41.03;;;;;;;;;;4946292;29;20209;-45
2023/12/30 06:15:09;;;;;;;117.40;41.83;;;;;;;;;;4948405;28;20187;-45
2023/12/30 06:17:36;;;;;;;114.65;41.67;;;;;;;;;;4938410;29;20426;-45
2023/12/30 06:20:02;;;;;;;124.00;40.92;;;;;;;;;;4955028;28;20171;-45
2023/12/30 06:22:28;;;;;;;115.32;40.10;;;;;;;;;;4936542;28;20708;-45
2023/12/30 06:24:53;;;;;;;99.75;39.72;;;;;;;;;;4949694;29;20193;-46
2023/12/30 06:27:20;;;;;;;69.50;33.10;;;;;;;;;;4944118;28;20185;-45
2023/12/30 06:29:47;;;;;;;9.98;9.18;;;;;;;;;;4941406;29;20522;-45
2023/12/30 06:32:13;;;;;;;12.13;11.00;;;;;;;;;;4953801;28;20589;-45
2023/12/30 06:34:39;;;;;;;108.60;38.17;;;;;;;;;;4954139;28;20183;-44
2023/12/30 06:37:05;;;;;;;11.10;10.10;;;;;;;;;;4954280;28;20182;-45
2023/12/30 06:39:31;;;;;;;10.67;9.77;;;;;;;;;;4957054;28;20428;-45
2023/12/30 06:42:00;;;;;;;12.00;11.10;;;;;;;;;;4962688;28;20999;-45
2023/12/30 06:44:26;;;;;;;9.68;8.88;;;;;;;;;;4960499;28;20425;-45
2023/12/30 06:46:52;;;;;;;11.63;10.70;;;;;;;;;;4954090;28;20176;-45
2023/12/30 06:49:18;;;;;;;11.50;10.52;;;;;;;;;;4956627;28;20197;-45
2023/12/30 06:51:44;;;;;;;11.50;10.53;;;;;;;;;;4954096;28;20228;-45
2023/12/30 06:54:10;;;;;;;8.53;7.83;;;;;;;;;;4954278;28;20461;-45
2023/12/30 06:56:36;;;;;;;9.87;9.07;;;;;;;;;;4954345;28;20773;-45
2023/12/30 06:59:02;;;;;;;11.67;10.77;;;;;;;;;;4954166;28;20783;-45
2023/12/30 07:01:28;;;;;;;12.02;11.02;;;;;;;;;;4953825;28;20406;-45
2023/12/30 07:03:55;;;;;;;12.00;11.00;;;;;;;;;;4953913;28;20187;-46
2023/12/30 07:06:21;;;;;;;12.10;11.20;;;;;;;;;;4954070;28;20289;-45
2023/12/30 07:08:47;;;;;;;13.45;12.45;;;;;;;;;;4954077;28;20186;-45
2023/12/30 07:11:13;;;;;;;20.03;18.47;;;;;;;;;;4953770;28;20177;-45
2023/12/30 07:13:39;;;;;;;10.13;9.18;;;;;;;;;;4952762;28;20457;-44
2023/12/30 07:16:05;;;;;;;12.07;11.13;;;;;;;;;;4954633;28;20646;-44
2023/12/30 07:18:31;;;;;;;11.80;10.90;;;;;;;;;;4956206;28;20420;-45
2023/12/30 07:20:57;;;;;;;13.18;12.18;;;;;;;;;;4956313;28;20182;-45
2023/12/30 07:23:23;;;;;;;15.07;13.97;;;;;;;;;;4953781;28;20200;-45
2023/12/30 07:25:51;;;;;;;14.13;13.00;;;;;;;;;;4953711;28;20828;-45
2023/12/30 07:28:17;;;;;;;14.43;13.32;;;;;;;;;;4954258;28;20417;-45
2023/12/30 07:30:43;;;;;;;29.30;24.73;;;;;;;;;;4953428;28;20184;-45
2023/12/30 07:33:09;;;;;;;133.07;41.10;;;;;;;;;;4953524;28;20465;-45
2023/12/30 07:35:35;;;;;;;141.38;41.65;;;;;;;;;;4953725;28;20180;-45
2023/12/30 07:38:01;;;;;;;149.77;44.93;;;;;;;;;;4953572;28;20660;-45
2023/12/30 07:40:27;;;;;;;153.83;46.87;;;;;;;;;;4953531;28;20479;-45
2023/12/30 07:42:54;;;;;;;154.10;47.13;;;;;;;;;;4954115;28;20488;-45
2023/12/30 07:45:20;;;;;;;146.75;42.85;;;;;;;;;;4945841;28;20749;-45
2023/12/30 07:47:46;;;;;;;153.23;47.83;;;;;;;;;;4953552;28;20180;-45
2023/12/30 07:50:12;;;;;;;152.02;47.47;;;;;;;;;;4953494;28;20836;-45
2023/12/30 07:52:38;;;;;;;157.93;48.67;;;;;;;;;;4953194;28;20212;-44
2023/12/30 07:55:04;;;;;;;149.47;45.77;;;;;;;;;;4953494;28;20187;-45
2023/12/30 07:57:30;;;;;;;147.57;44.60;;;;;;;;;;4952154;28;20420;-45
2023/12/30 07:59:56;;;;;;;147.73;44.63;;;;;;;;;;4963450;28;20240;-45
2023/12/30 08:02:22;;;;;;;155.43;47.07;;;;;;;;;;4966645;28;20440;-45
2023/12/30 08:04:48;;;;;;;155.18;47.50;;;;;;;;;;4951239;28;20469;-45
2023/12/30 08:07:14;;;;;;;148.53;45.17;;;;;;;;;;4953335;28;20261;-45
2023/12/30 08:09:40;;;;;;;154.77;45.97;;;;;;;;;;4953502;28;20406;-45
2023/12/30 08:12:06;;;;;;;151.73;47.93;;;;;;;;;;4952790;28;20728;-45
2023/12/30 08:14:33;;;;;;;152.32;47.50;;;;;;;;;;4956407;28;20769;-45
2023/12/30 08:16:59;;;;;;;125.25;38.58;;;;;;;;;;4955820;28;20202;-45
2023/12/30 08:19:25;;;;;;;159.73;48.38;;;;;;;;;;4953302;28;20213;-46
2023/12/30 08:21:51;;;;;;;152.30;46.47;;;;;;;;;;4953142;28;20193;-45
2023/12/30 08:24:19;;;;;;;162.93;51.22;;;;;;;;;;4953074;28;20654;-45
2023/12/30 08:26:45;;;;;;;154.07;49.00;;;;;;;;;;4951901;29;20196;-45
2023/12/30 08:29:13;;;;;;;152.30;47.28;;;;;;;;;;4953401;28;20261;-45
2023/12/30 08:31:45;;;;;;;154.48;47.38;;;;;;;;;;4952931;28;20316;-45
2023/12/30 08:34:11;;;;;;;152.98;47.55;;;;;;;;;;4953067;28;20256;-45
2023/12/30 08:36:37;;;;;;;152.65;45.92;;;;;;;;;;4953221;28;20677;-45
2023/12/30 08:39:03;;;;;;;152.63;47.03;;;;;;;;;;4953332;28;20185;-45
2023/12/30 08:41:29;;;;;;;195.40;60.00;;;;;;;;;;4955814;28;20406;-45
2023/12/30 08:43:56;;;;;;;195.63;58.60;;;;;;;;;;4952795;28;20417;-45
2023/12/30 08:46:22;;;;;;;199.85;62.97;;;;;;;;;;4952945;28;20928;-45
2023/12/30 08:48:48;;;;;;;198.30;59.80;;;;;;;;;;4953319;28;20718;-46
2023/12/30 08:51:14;;;;;;;193.60;59.47;;;;;;;;;;4956243;28;20260;-45
2023/12/30 08:53:40;;;;;;;198.20;60.97;;;;;;;;;;4956117;28;20564;-45
2023/12/30 08:56:06;;;;;;;197.60;58.77;;;;;;;;;;4956350;28;20273;-46
2023/12/30 08:58:32;;;;;;;196.90;57.53;;;;;;;;;;4959797;28;20879;-45
2023/12/30 09:00:58;;;;;;;197.63;60.90;;;;;;;;;;4962450;28;20205;-45
2023/12/30 09:03:24;;;;;;;198.00;60.40;;;;;;;;;;4956326;28;20849;-45
2023/12/30 09:05:50;;;;;;;70.30;29.57;;;;;;;;;;4957071;28;20448;-45
2023/12/30 09:08:16;;;;;;;16.50;15.00;;;;;;;;;;4956685;28;20469;-45
2023/12/30 09:10:42;;;;;;;15.83;14.63;;;;;;;;;;4969946;28;20423;-45
2023/12/30 09:13:08;;;;;;;16.27;15.18;;;;;;;;;;4965254;28;20481;-45
2023/12/30 09:15:34;;;;;;;17.27;16.07;;;;;;;;;;4961990;28;20180;-45
2023/12/30 09:18:00;;;;;;;15.97;14.77;;;;;;;;;;4973361;28;20865;-45
2023/12/30 09:20:26;;;;;;;80.17;35.17;;;;;;;;;;4955947;28;20503;-46
2023/12/30 09:22:52;;;;;;;14.90;13.90;;;;;;;;;;4973208;28;20437;-45
2023/12/30 09:25:18;;;;;;;18.80;17.08;;;;;;;;;;4959767;28;20490;-45
2023/12/30 09:27:45;;;;;;;17.60;16.42;;;;;;;;;;4955737;28;20170;-44
2023/12/30 09:30:11;;;;;;;17.30;16.10;;;;;;;;;;4954553;29;20205;-44
2023/12/30 09:32:37;;;;;;;14.48;13.45;;;;;;;;;;4955369;28;20567;-45
2023/12/30 09:35:03;;;;;;;173.25;57.00;;;;;;;;;;4959859;28;20189;-45
2023/12/30 09:37:29;;;;;;;213.00;63.83;;;;;;;;;;4951801;28;20182;-45
2023/12/30 09:39:55;;;;;;;210.05;61.45;;;;;;;;;;4962614;28;20176;-46
2023/12/30 09:42:21;;;;;;;24.63;19.70;;;;;;;;;;4955383;28;20858;-45
2023/12/30 09:44:47;;;;;;;213.80;66.93;;;;;;;;;;4956764;28;20405;-44
2023/12/30 09:47:14;;;;;;;212.73;63.58;;;;;;;;;;4956188;28;20663;-45
2023/12/30 09:49:40;;;;;;;213.98;64.95;;;;;;;;;;4959196;28;20638;-45
2023/12/30 09:52:06;;;;;;;214.52;65.32;;;;;;;;;;4954795;28;20605;-45
2023/12/30 09:54:36;;;;;;;210.27;62.40;;;;;;;;;;4955222;28;20261;-45
2023/12/30 09:57:05;;;;;;;214.75;65.43;;;;;;;;;;4955914;28;20410;-44
2023/12/30 09:59:40;;;;;;;210.48;63.97;;;;;;;;;;4956136;28;20197;-45
2023/12/30 10:02:09;;;;;;;214.80;67.05;;;;;;;;;;4957646;28;20193;-44
2023/12/30 10:04:35;;;;;;;213.45;63.85;;;;;;;;;;4957985;28;20552;-44
2023/12/30 10:07:01;;;;;;;211.35;61.88;;;;;;;;;;4957296;28;20193;-45
2023/12/30 10:09:29;;;;;;;215.40;66.40;;;;;;;;;;4954740;28;20639;-44
2023/12/30 10:11:55;;;;;;;196.15;61.47;;;;;;;;;;4954605;28;20425;-45
2023/12/30 10:14:21;;;;;;;20.13;18.77;;;;;;;;;;4954780;28;20248;-44
2023/12/30 10:16:48;;;;;;;207.63;65.65;;;;;;;;;;4955402;28;20166;-44
2023/12/30 10:19:15;;;;;;;208.73;62.10;;;;;;;;;;4954625;28;20228;-44
2023/12/30 10:21:41;;;;;;;214.65;64.45;;;;;;;;;;4954468;28;20256;-45
2023/12/30 10:24:07;;;;;;;213.07;64.88;;;;;;;;;;4955052;28;20562;-45
2023/12/30 10:26:34;;;;;;;213.43;65.72;;;;;;;;;;4954602;28;20170;-44
2023/12/30 10:29:00;;;;;;;210.85;64.15;;;;;;;;;;4956759;28;20175;-45
2023/12/30 10:31:26;;;;;;;213.23;65.82;;;;;;;;;;4957888;28;20247;-44
2023/12/30 10:33:55;;;;;;;214.57;66.68;;;;;;;;;;4959587;28;20202;-45
2023/12/30 10:36:21;;;;;;;211.55;62.15;;;;;;;;;;4945301;29;20174;-45
2023/12/30 10:38:49;;;;;;;211.82;62.35;;;;;;;;;;4954696;28;20174;-45
2023/12/30 10:41:15;;;;;;;214.18;64.72;;;;;;;;;;4953815;28;20190;-45
2023/12/30 10:43:41;;;;;;;217.57;68.30;;;;;;;;;;4943119;28;20212;-45
2023/12/30 10:46:11;;;;;;;215.45;66.80;;;;;;;;;;4941020;29;20756;-45
2023/12/30 10:48:44;;;;;;;216.23;68.30;;;;;;;;;;4951900;28;20237;-45
2023/12/30 10:51:13;;;;;;;212.50;64.85;;;;;;;;;;4935096;29;20703;-45
2023/12/30 10:53:40;;;;;;;214.00;66.00;;;;;;;;;;4954351;28;20201;-45
2023/12/30 10:56:08;;;;;;;211.80;63.17;;;;;;;;;;4939008;28;20694;-45
2023/12/30 10:58:35;;;;;;;214.35;65.65;;;;;;;;;;4948901;29;20183;-45
2023/12/30 11:01:02;;;;;;;210.63;66.28;;;;;;;;;;4954014;28;20205;-44
2023/12/30 11:03:29;;;;;;;212.80;65.65;;;;;;;;;;4953410;28;20209;-45
2023/12/30 11:06:01;;;;;;;215.20;68.60;;;;;;;;;;4953871;28;20214;-45
2023/12/30 11:08:27;;;;;;;214.50;67.97;;;;;;;;;;4955019;28;20261;-47
2023/12/30 11:10:56;;;;;;;143.23;51.50;;;;;;;;;;4954799;28;20501;-47
2023/12/30 11:13:21;;;;;;;212.07;68.50;;;;;;;;;;4953639;28;20194;-46
2023/12/30 11:15:47;;;;;;;214.67;69.93;;;;;;;;;;4956906;28;20178;-47
2023/12/30 11:18:13;;;;;;;215.73;69.93;;;;;;;;;;4954083;28;20501;-46
2023/12/30 11:20:48;;;;;;;213.07;67.60;;;;;;;;;;4953884;28;20937;-47
2023/12/30 11:23:16;;;;;;;213.55;68.15;;;;;;;;;;4961270;28;20433;-46
2023/12/30 11:25:48;;;;;;;214.85;69.45;;;;;;;;;;4953688;28;20200;-46
2023/12/30 11:28:20;;;;;;;207.43;65.43;;;;;;;;;;4954009;28;20656;-47
2023/12/30 11:30:51;;;;;;;212.10;67.72;;;;;;;;;;4953624;28;20178;-46
2023/12/30 11:33:18;;;;;;;212.23;66.70;;;;;;;;;;4953596;28;20235;-47
2023/12/30 11:35:44;;;;;;;211.68;68.20;;;;;;;;;;4953797;28;20177;-46
2023/12/30 11:38:12;;;;;;;213.57;69.97;;;;;;;;;;4953549;28;20187;-46
2023/12/30 11:40:42;;;;;;;211.27;69.18;;;;;;;;;;4954568;28;20356;-46
2023/12/30 11:43:10;;;;;;;210.63;68.63;;;;;;;;;;4956135;28;20210;-47
2023/12/30 11:45:36;;;;;;;211.32;70.63;;;;;;;;;;4957801;28;20257;-47
2023/12/30 11:48:02;;;;;;;212.32;68.90;;;;;;;;;;4953677;28;20181;-47
2023/12/30 11:50:28;;;;;;;213.63;71.22;;;;;;;;;;4953478;28;20189;-46
2023/12/30 11:52:56;;;;;;;208.70;68.32;;;;;;;;;;4953380;28;20209;-45
2023/12/30 11:55:23;;;;;;;209.15;67.50;;;;;;;;;;4953593;28;20194;-47
2023/12/30 11:57:50;;;;;;;207.35;65.00;;;;;;;;;;4953515;28;20162;-46
2023/12/30 12:00:16;;;;;;;212.68;72.50;;;;;;;;;;4953526;28;20250;-46
2023/12/30 12:02:41;;;;;;;211.68;74.22;;;;;;;;;;4953193;28;20205;-46
2023/12/30 12:05:08;;;;;;;210.53;71.57;;;;;;;;;;4952728;28;20194;-45
2023/12/30 12:07:34;;;;;;;207.00;69.65;;;;;;;;;;4953491;28;20422;-46
2023/12/30 12:10:00;;;;;;;211.10;73.93;;;;;;;;;;4952318;28;20238;-46
2023/12/30 12:12:34;;;;;;;208.57;69.00;;;;;;;;;;4951796;28;20221;-46
2023/12/30 12:15:00;;;;;;;204.07;66.35;;;;;;;;;;4955210;28;20176;-44
2023/12/30 12:17:26;;;;;;;202.07;69.20;;;;;;;;;;4952722;28;20175;-45
2023/12/30 12:19:52;;;;;;;205.35;72.90;;;;;;;;;;4953076;28;20729;-46
2023/12/30 12:22:18;;;;;;;198.67;67.70;;;;;;;;;;4952504;28;20204;-47
2023/12/30 12:24:44;;;;;;;209.45;74.40;;;;;;;;;;4954342;28;20914;-46
2023/12/30 12:27:10;;;;;;;206.02;69.63;;;;;;;;;;4956075;28;20174;-45
2023/12/30 12:29:45;;;;;;;205.47;68.40;;;;;;;;;;4953335;28;20647;-45
2023/12/30 12:32:13;;;;;;;214.00;78.10;;;;;;;;;;4955742;28;20832;-44
2023/12/30 12:34:41;;;;;;;206.55;69.28;;;;;;;;;;4958835;28;20204;-45
2023/12/30 12:37:07;;;;;;;201.75;65.25;;;;;;;;;;4956540;28;20170;-46
2023/12/30 12:39:33;;;;;;;216.68;78.88;;;;;;;;;;4954058;28;20198;-45
2023/12/30 12:41:59;;;;;;;208.10;70.97;;;;;;;;;;4956140;28;20229;-47
2023/12/30 12:44:25;;;;;;;207.77;71.83;;;;;;;;;;4961366;28;20466;-46
2023/12/30 12:46:51;;;;;;;207.90;72.70;;;;;;;;;;4960075;28;20472;-45
2023/12/30 12:49:19;;;;;;;205.98;70.07;;;;;;;;;;4955984;28;20489;-45
2023/12/30 12:51:45;;;;;;;206.40;70.40;;;;;;;;;;4956714;28;20191;-45
2023/12/30 12:54:11;;;;;;;206.45;71.13;;;;;;;;;;4956583;28;20571;-47
2023/12/30 12:56:37;;;;;;;205.32;69.63;;;;;;;;;;4959670;28;20182;-47
2023/12/30 12:59:03;;;;;;;206.52;70.70;;;;;;;;;;4960617;28;20187;-46
2023/12/30 13:01:29;;;;;;;203.43;71.93;;;;;;;;;;4963583;28;20467;-47
2023/12/30 13:03:58;;;;;;;203.63;73.57;;;;;;;;;;4956584;28;20422;-46
2023/12/30 13:06:23;;;;;;;196.07;69.10;;;;;;;;;;4958620;28;20473;-47
2023/12/30 13:08:56;;;;;;;187.30;67.97;;;;;;;;;;4956518;28;20260;-47
2023/12/30 13:11:31;;;;;;;182.55;70.35;;;;;;;;;;4948362;29;20443;-46
2023/12/30 13:13:57;;;;;;;180.40;68.97;;;;;;;;;;4956152;28;20181;-46
2023/12/30 13:16:24;;;;;;;182.57;67.00;;;;;;;;;;4956270;28;20656;-46
2023/12/30 13:18:50;;;;;;;184.18;65.43;;;;;;;;;;4956682;28;20717;-46
2023/12/30 13:21:16;;;;;;;179.93;67.95;;;;;;;;;;4958153;28;20556;-46
2023/12/30 13:23:42;;;;;;;184.57;68.70;;;;;;;;;;4959808;28;20210;-46
2023/12/30 13:26:08;;;;;;;184.52;69.68;;;;;;;;;;4955722;28;20423;-45
2023/12/30 13:28:34;;;;;;;188.98;70.60;;;;;;;;;;4955924;28;20178;-46
2023/12/30 13:31:01;;;;;;;186.32;68.30;;;;;;;;;;4956245;28;20167;-46
2023/12/30 13:33:27;;;;;;;185.48;68.50;;;;;;;;;;4955889;28;20291;-45
2023/12/30 13:35:53;;;;;;;145.07;55.55;;;;;;;;;;4958022;28;20168;-46
2023/12/30 13:38:23;;;;;;;185.23;71.70;;;;;;;;;;4955771;28;20191;-46
2023/12/30 13:41:00;;;;;;;144.25;55.70;;;;;;;;;;4955374;28;20419;-46
2023/12/30 13:43:26;;;;;;;181.00;70.43;;;;;;;;;;4948658;29;20203;-45
2023/12/30 13:46:00;;;;;;;183.65;73.68;;;;;;;;;;4956072;28;20177;-45
2023/12/30 13:49:22;;;;;;;166.13;65.80;;;;;;;;;;4950739;28;20184;-46
2023/12/30 13:51:16;;;;;;;177.38;68.18;;;;;;;;;;4958511;28;20669;-45
2023/12/30 13:53:42;;;;;;;171.68;65.97;;;;;;;;;;4955278;28;20214;-46
2023/12/30 13:56:15;;;;;;;129.88;54.03;;;;;;;;;;4954317;28;20315;-47
2023/12/30 13:58:43;;;;;;;176.18;72.82;;;;;;;;;;4955524;28;20168;-46
2023/12/30 14:01:09;;;;;;;166.88;68.40;;;;;;;;;;4955315;28;20187;-47
2023/12/30 14:03:36;;;;;;;160.03;65.50;;;;;;;;;;4970863;28;20202;-48
2023/12/30 14:06:05;;;;;;;160.15;65.97;;;;;;;;;;4961798;28;20428;-47
2023/12/30 14:08:36;;;;;;;156.65;65.65;;;;;;;;;;4965692;28;20172;-46
2023/12/30 14:11:07;;;;;;;144.18;63.63;;;;;;;;;;4966671;28;20184;-46